Time;durP1;ratioP1;P1;durP2;ratioP2;P2;SDS_P1;SDS_P2;PMS_P1;PMS_P2;Temp;Humidity;BMP_temperature;BMP_pressure;BME280_temperature;BME280_humidity;BME280_pressure;Samples;Min_cycle;Max_cycle;Signal;HPM_P1;HPM_P2
2023/06/16 00:00:43;;;;;;;6.97;5.60;;;;;;;21.69;98.31;101514.50;5075375;28;20025;-70
2023/06/16 00:03:09;;;;;;;7.70;6.00;;;;;;;21.52;97.77;101489.09;5079213;28;20047;-69
2023/06/16 00:05:35;;;;;;;7.13;5.40;;;;;;;21.54;97.58;101503.34;5059731;28;20086;-68
2023/06/16 00:08:02;;;;;;;6.22;5.63;;;;;;;21.50;97.02;101500.31;5075666;28;20033;-66
2023/06/16 00:10:28;;;;;;;6.90;5.90;;;;;;;21.48;97.24;101501.63;5040459;28;20050;-67
2023/06/16 00:12:55;;;;;;;5.80;5.20;;;;;;;21.30;97.02;101484.41;5075119;28;20040;-67
2023/06/16 00:15:21;;;;;;;7.65;5.15;;;;;;;21.30;96.80;101495.38;5073145;28;20078;-67
2023/06/16 00:17:46;;;;;;;5.75;5.25;;;;;;;21.25;96.55;101503.50;5073445;28;20028;-66
2023/06/16 00:20:19;;;;;;;7.55;5.53;;;;;;;21.20;96.47;101494.41;5075960;28;20438;-66
2023/06/16 00:22:47;;;;;;;7.65;5.60;;;;;;;21.05;96.31;101498.56;5078084;28;20119;-66
2023/06/16 00:25:15;;;;;;;6.20;5.50;;;;;;;20.92;96.58;101498.94;5075749;28;20465;-67
2023/06/16 00:27:41;;;;;;;6.28;5.65;;;;;;;20.83;96.67;101495.00;5076403;28;20062;-66
2023/06/16 00:30:07;;;;;;;7.47;5.85;;;;;;;20.52;97.08;101482.72;5077878;28;20028;-71
2023/06/16 00:32:32;;;;;;;8.35;5.70;;;;;;;20.52;97.01;101488.19;5076494;28;20166;-67
2023/06/16 00:34:58;;;;;;;7.28;5.68;;;;;;;20.48;96.57;101489.75;5059611;28;20066;-70
2023/06/16 00:37:23;;;;;;;5.82;5.32;;;;;;;20.35;96.17;101497.19;5077787;28;20024;-69
2023/06/16 00:39:48;;;;;;;6.80;6.10;;;;;;;20.20;96.37;101486.00;5077828;28;20029;-70
2023/06/16 00:42:14;;;;;;;6.45;5.75;;;;;;;20.00;96.37;101471.97;5075915;28;20115;-67
2023/06/16 00:44:39;;;;;;;7.00;6.03;;;;;;;19.99;96.06;101490.25;5077956;28;20060;-67
2023/06/16 00:47:06;;;;;;;6.20;5.45;;;;;;;19.90;95.07;101495.31;5085381;28;20031;-67
2023/06/16 00:49:31;;;;;;;6.28;5.50;;;;;;;19.83;94.52;101491.06;5085343;28;20021;-66
2023/06/16 00:51:58;;;;;;;8.38;5.43;;;;;;;19.75;93.69;101488.72;5083688;28;20202;-68
2023/06/16 00:54:23;;;;;;;6.88;5.57;;;;;;;19.69;92.99;101485.06;5080839;28;20039;-66
2023/06/16 00:56:51;;;;;;;6.65;5.80;;;;;;;19.62;92.43;101476.97;5080425;28;20024;-70
2023/06/16 00:59:17;;;;;;;8.20;5.35;;;;;;;19.67;91.83;101477.13;5082805;28;20090;-66
2023/06/16 01:01:42;;;;;;;8.70;5.72;;;;;;;19.67;91.26;101482.59;5081924;28;20032;-67
2023/06/16 01:04:09;;;;;;;7.63;5.82;;;;;;;19.57;90.57;101455.06;5062483;28;20406;-66
2023/06/16 01:06:41;;;;;;;8.13;5.60;;;;;;;19.68;90.29;101476.03;5080346;28;20045;-66
2023/06/16 01:09:15;;;;;;;5.85;5.18;;;;;;;19.65;90.07;101472.97;5077353;28;20043;-67
2023/06/16 01:11:52;;;;;;;;;;;;;;;19.59;90.53;101472.00;5074987;28;20025;-66
2023/06/16 01:14:28;;;;;;;6.70;6.00;;;;;;;19.50;90.04;101470.72;5077189;28;19984;-72
2023/06/16 01:16:57;;;;;;;6.53;5.90;;;;;;;19.28;90.07;101440.53;5077128;28;20301;-67
2023/06/16 01:19:37;;;;;;;7.95;6.10;;;;;;;19.38;89.80;101461.75;5074503;28;20025;-66
2023/06/16 01:22:21;;;;;;;6.75;5.80;;;;;;;19.33;89.77;101465.19;5074345;28;20398;-67
2023/06/16 01:24:47;;;;;;;7.10;5.50;;;;;;;19.25;89.81;101462.84;5054187;28;20025;-67
2023/06/16 01:27:17;;;;;;;6.28;5.68;;;;;;;19.22;89.76;101466.06;5052247;28;20752;-67
2023/06/16 01:29:43;;;;;;;7.07;5.50;;;;;;;19.15;89.66;101458.00;5055534;28;20062;-69
2023/06/16 01:32:11;;;;;;;6.55;5.75;;;;;;;19.06;89.61;101459.44;5054700;28;20033;-70
2023/06/16 01:34:37;;;;;;;6.03;5.43;;;;;;;18.94;89.44;101450.44;5053813;28;20499;-77
2023/06/16 01:37:04;;;;;;;6.75;5.43;;;;;;;18.86;89.58;101454.38;5055290;28;20032;-71
2023/06/16 01:39:31;;;;;;;7.53;6.13;;;;;;;18.78;89.50;101447.38;5039343;28;20539;-66
2023/06/16 01:41:58;;;;;;;6.50;5.90;;;;;;;18.80;89.57;101455.31;5056751;28;20025;-66
2023/06/16 01:44:26;;;;;;;7.63;6.20;;;;;;;18.80;89.24;101457.22;5056537;28;20040;-68
2023/06/16 01:46:52;;;;;;;7.68;6.15;;;;;;;18.75;88.90;101447.88;5054748;28;20476;-68
2023/06/16 01:49:18;;;;;;;7.78;5.97;;;;;;;18.76;88.73;101457.69;5054457;28;20039;-67
2023/06/16 01:51:44;;;;;;;7.70;6.10;;;;;;;18.72;88.47;101452.97;5055005;28;20031;-66
2023/06/16 01:54:10;;;;;;;8.25;6.00;;;;;;;18.64;88.64;101451.41;5054976;28;20085;-66
2023/06/16 01:56:35;;;;;;;7.78;5.70;;;;;;;18.65;88.54;101449.50;5054037;28;20037;-65
2023/06/16 01:59:01;;;;;;;6.82;5.85;;;;;;;18.63;88.30;101454.34;5053302;28;20033;-66
2023/06/16 02:01:32;;;;;;;8.60;6.10;;;;;;;18.54;88.28;101449.25;5053919;28;20081;-69
2023/06/16 02:04:04;;;;;;;7.47;6.10;;;;;;;18.47;88.37;101445.78;5054168;28;20490;-68
2023/06/16 02:07:20;;;;;;;6.68;6.07;;;;;;;18.45;88.24;101450.66;5055247;28;20076;-67
2023/06/16 02:09:46;;;;;;;8.27;6.40;;;;;;;18.35;88.16;101441.44;5052350;28;20071;-69
2023/06/16 02:12:12;;;;;;;7.78;6.13;;;;;;;18.33;88.14;101447.09;5055072;28;20029;-67
2023/06/16 02:14:39;;;;;;;6.65;5.60;;;;;;;18.35;88.03;101444.16;5055292;28;20025;-67
2023/06/16 02:17:07;;;;;;;6.50;5.90;;;;;;;18.34;87.97;101442.47;5037758;28;20044;-68
2023/06/16 02:19:34;;;;;;;6.57;5.88;;;;;;;18.26;88.15;101438.22;5054401;28;20029;-66
2023/06/16 02:22:00;;;;;;;7.78;6.57;;;;;;;18.21;88.22;101440.78;5055960;28;20021;-71
2023/06/16 02:24:26;;;;;;;6.90;6.20;;;;;;;18.22;88.21;101443.28;5055547;28;20107;-70
2023/06/16 02:26:51;;;;;;;7.93;5.82;;;;;;;18.24;88.03;101441.16;5055726;28;20158;-65
2023/06/16 02:29:17;;;;;;;6.30;5.70;;;;;;;18.24;87.85;101430.25;5055240;28;20040;-66
2023/06/16 02:31:46;;;;;;;8.40;6.15;;;;;;;18.27;87.85;101432.50;5036779;28;20039;-70
2023/06/16 02:34:12;;;;;;;6.63;6.03;;;;;;;18.39;87.09;101434.44;5054255;28;20028;-66
2023/06/16 02:36:38;;;;;;;6.68;5.95;;;;;;;18.42;85.94;101417.63;5052921;28;20025;-65
2023/06/16 02:39:03;;;;;;;7.03;5.78;;;;;;;18.98;84.11;101435.28;5054236;28;20157;-66
2023/06/16 02:41:29;;;;;;;8.68;5.75;;;;;;;19.44;81.85;101441.69;5055511;28;20025;-67
2023/06/16 02:43:54;;;;;;;6.47;5.72;;;;;;;19.81;79.67;101436.69;5053994;28;20041;-65
2023/06/16 02:46:19;;;;;;;6.32;5.72;;;;;;;20.15;77.90;101437.56;5050237;28;20115;-69
2023/06/16 02:48:45;;;;;;;7.65;5.80;;;;;;;20.57;75.56;101430.88;5036240;28;20059;-65
2023/06/16 02:51:11;;;;;;;5.97;5.38;;;;;;;20.95;73.59;101432.78;5053763;28;20055;-65
2023/06/16 02:53:39;;;;;;;9.52;5.80;;;;;;;21.24;72.36;101430.69;5053118;28;20755;-67
2023/06/16 02:56:04;;;;;;;6.97;5.70;;;;;;;21.42;71.25;101432.28;5052975;28;20024;-66
2023/06/16 02:58:30;;;;;;;7.25;5.78;;;;;;;21.56;70.56;101430.00;5052122;28;20029;-66
2023/06/16 03:00:55;;;;;;;6.20;5.60;;;;;;;21.29;70.80;101430.75;5053007;28;20063;-66
2023/06/16 03:03:21;;;;;;;9.15;6.25;;;;;;;20.94;72.28;101425.66;5036178;28;20125;-65
2023/06/16 03:05:47;;;;;;;6.72;6.10;;;;;;;20.80;73.00;101427.94;5050905;28;20040;-67
2023/06/16 03:08:32;;;;;;;6.28;5.47;;;;;;;20.76;73.26;101435.00;5053722;28;20048;-66
2023/06/16 03:10:57;;;;;;;7.00;5.57;;;;;;;20.82;72.51;101423.00;5055063;28;20024;-66
2023/06/16 03:13:23;;;;;;;5.63;5.13;;;;;;;20.92;71.88;101418.78;5054703;28;20296;-66
2023/06/16 03:15:50;;;;;;;8.60;5.38;;;;;;;21.05;71.12;101421.13;5055650;28;20025;-65
2023/06/16 03:18:16;;;;;;;5.78;5.18;;;;;;;21.13;70.78;101423.44;5055602;28;20496;-66
2023/06/16 03:20:45;;;;;;;6.28;5.50;;;;;;;21.07;70.58;101424.47;5056279;28;20039;-67
2023/06/16 03:23:11;;;;;;;6.80;5.40;;;;;;;21.11;70.51;101420.94;5054336;28;20041;-65
2023/06/16 03:25:38;;;;;;;6.13;5.40;;;;;;;21.23;69.86;101420.84;5055976;28;20025;-67
2023/06/16 03:28:05;;;;;;;6.57;5.90;;;;;;;21.09;69.99;101423.13;5055542;28;20032;-66
2023/06/16 03:30:31;;;;;;;6.75;5.32;;;;;;;21.01;70.10;101414.53;5055807;28;20029;-66
2023/06/16 03:32:57;;;;;;;9.23;5.40;;;;;;;21.02;70.08;101422.47;5054960;28;20025;-66
2023/06/16 03:35:22;;;;;;;7.82;5.55;;;;;;;21.20;69.52;101423.25;5054795;28;20090;-66
2023/06/16 03:37:48;;;;;;;5.75;4.90;;;;;;;21.43;68.64;101427.66;5054180;28;20052;-65
2023/06/16 03:40:14;;;;;;;6.30;5.65;;;;;;;21.65;67.51;101419.38;5055230;28;20033;-66
2023/06/16 03:42:39;;;;;;;5.72;5.22;;;;;;;22.17;65.43;101418.81;5054460;28;20037;-67
2023/06/16 03:45:06;;;;;;;5.47;4.97;;;;;;;22.69;63.86;101421.66;5054258;28;20087;-65
2023/06/16 03:47:31;;;;;;;6.20;5.50;;;;;;;23.14;61.95;101420.25;5055181;28;20112;-69
2023/06/16 03:49:58;;;;;;;6.13;5.30;;;;;;;23.56;60.56;101421.22;5054968;28;20438;-68
2023/06/16 03:52:23;;;;;;;6.00;5.40;;;;;;;23.72;58.87;101424.88;5054326;28;20409;-69
2023/06/16 03:54:49;;;;;;;7.53;5.40;;;;;;;23.98;57.21;101418.31;5037014;28;20029;-66
2023/06/16 03:57:15;;;;;;;10.23;5.07;;;;;;;24.22;55.78;101413.06;5053798;28;20553;-66
2023/06/16 03:59:41;;;;;;;6.35;5.20;;;;;;;24.69;54.92;101422.94;5057245;28;20467;-67
2023/06/16 04:02:07;;;;;;;5.95;4.80;;;;;;;24.71;53.44;101395.16;5058096;28;20047;-68
2023/06/16 04:04:34;;;;;;;5.68;5.10;;;;;;;25.04;52.61;101404.66;5057827;28;20506;-67
2023/06/16 04:07:00;;;;;;;5.80;4.65;;;;;;;25.44;50.94;101419.38;5070351;28;20037;-65
2023/06/16 04:09:26;;;;;;;7.43;4.45;;;;;;;25.24;49.88;101412.88;5052320;28;20067;-66
2023/06/16 04:11:52;;;;;;;5.60;4.63;;;;;;;25.81;47.96;101407.88;5056716;28;20047;-66
2023/06/16 04:14:17;;;;;;;9.45;4.78;;;;;;;26.09;47.08;101417.28;5057644;28;20089;-69
2023/06/16 04:16:43;;;;;;;6.90;4.60;;;;;;;26.48;46.74;101422.75;5054523;28;20079;-65
2023/06/16 04:19:10;;;;;;;4.97;4.32;;;;;;;26.82;45.55;101413.59;5052100;28;20036;-66
2023/06/16 04:21:36;;;;;;;5.25;4.75;;;;;;;26.99;44.68;101426.91;5057862;28;20029;-67
2023/06/16 04:24:02;;;;;;;7.40;4.72;;;;;;;27.17;44.04;101433.63;5059086;28;20036;-67
2023/06/16 04:26:28;;;;;;;5.25;4.75;;;;;;;27.41;43.28;101431.63;5058431;28;20029;-67
2023/06/16 04:28:55;;;;;;;6.32;4.85;;;;;;;26.92;44.18;101429.19;5056554;28;20037;-67
2023/06/16 04:31:22;;;;;;;9.20;4.70;;;;;;;25.89;46.43;101428.47;5056514;28;20039;-67
2023/06/16 04:33:48;;;;;;;6.07;4.70;;;;;;;26.28;44.70;101425.69;5056492;28;20108;-67
2023/06/16 04:36:14;;;;;;;10.57;5.03;;;;;;;26.81;44.02;101430.44;5058903;28;20021;-66
2023/06/16 04:38:40;;;;;;;9.27;4.80;;;;;;;27.10;43.84;101439.47;5057631;28;20067;-67
2023/06/16 04:41:06;;;;;;;8.20;4.78;;;;;;;27.17;43.60;101425.34;5056908;28;20048;-67
2023/06/16 04:43:31;;;;;;;5.95;5.05;;;;;;;27.08;43.77;101422.34;5055869;28;20084;-67
2023/06/16 04:45:58;;;;;;;5.30;4.57;;;;;;;27.00;43.23;101414.75;5055583;28;20630;-67
2023/06/16 04:48:25;;;;;;;5.35;4.63;;;;;;;27.22;43.24;101416.13;5038168;28;20076;-68
2023/06/16 04:50:53;;;;;;;8.65;4.53;;;;;;;27.70;42.14;101421.56;5058385;28;20025;-67
2023/06/16 04:53:18;;;;;;;7.68;4.50;;;;;;;27.47;41.83;101413.03;5053768;28;20092;-67
2023/06/16 04:55:44;;;;;;;5.78;4.20;;;;;;;27.62;41.78;101423.88;5056697;28;20112;-68
2023/06/16 04:58:09;;;;;;;7.75;4.40;;;;;;;27.28;41.94;101412.19;5056467;28;20033;-67
2023/06/16 05:00:35;;;;;;;6.15;4.18;;;;;;;27.29;41.86;101405.56;5022113;28;20029;-67
2023/06/16 05:03:00;;;;;;;7.50;4.38;;;;;;;27.20;42.33;101432.22;5037287;28;20071;-68
2023/06/16 05:05:26;;;;;;;4.80;4.10;;;;;;;27.04;43.28;101424.06;5053046;28;20033;-68
2023/06/16 05:07:52;;;;;;;5.43;4.28;;;;;;;26.92;43.08;101421.75;5049192;28;20029;-68
2023/06/16 05:10:17;;;;;;;7.07;4.43;;;;;;;26.98;42.67;101425.25;5034359;28;20541;-67
2023/06/16 05:12:43;;;;;;;6.28;4.03;;;;;;;26.81;43.09;101416.63;5052400;28;20074;-67
2023/06/16 05:15:09;;;;;;;7.50;4.35;;;;;;;26.40;43.57;101428.06;5057003;28;20029;-67
2023/06/16 05:17:35;;;;;;;7.25;4.00;;;;;;;26.24;44.02;101419.91;5058205;28;20037;-68
2023/06/16 05:20:01;;;;;;;5.22;4.03;;;;;;;26.33;43.90;101420.13;5055405;28;20036;-68
2023/06/16 05:22:26;;;;;;;7.22;3.97;;;;;;;26.42;43.45;101415.63;5056460;28;20044;-68
2023/06/16 05:24:53;;;;;;;4.30;3.80;;;;;;;27.06;42.52;101419.09;5056234;28;20458;-68
2023/06/16 05:27:22;;;;;;;4.43;3.90;;;;;;;26.89;42.56;101418.75;5052719;28;20017;-74
2023/06/16 05:29:51;;;;;;;5.63;3.92;;;;;;;26.79;42.68;101418.84;5056801;28;20376;-69
2023/06/16 05:32:19;;;;;;;6.18;4.13;;;;;;;26.90;41.99;101410.16;5038351;28;20122;-70
2023/06/16 05:34:46;;;;;;;7.47;3.88;;;;;;;27.04;42.01;101414.97;5056920;28;20531;-69
2023/06/16 05:37:15;;;;;;;4.78;4.20;;;;;;;27.22;41.83;101411.47;5056060;28;20035;-68
2023/06/16 05:39:44;;;;;;;7.88;3.70;;;;;;;26.97;41.56;101417.28;5056461;28;20025;-67
2023/06/16 05:42:13;;;;;;;11.40;3.85;;;;;;;27.11;41.12;101413.47;5055760;28;20063;-68
2023/06/16 05:44:40;;;;;;;5.82;3.70;;;;;;;27.03;41.23;101413.34;5055647;28;20555;-69
2023/06/16 05:47:06;;;;;;;8.23;3.67;;;;;;;27.34;41.04;101408.25;5056158;28;20498;-68
2023/06/16 05:49:31;;;;;;;5.03;3.50;;;;;;;27.41;40.49;101412.28;5055832;28;20025;-68
2023/06/16 05:51:58;;;;;;;8.10;3.63;;;;;;;27.38;40.39;101403.75;5059186;28;20067;-68
2023/06/16 05:54:24;;;;;;;6.78;3.28;;;;;;;27.56;40.00;101408.50;5066090;28;20028;-67
2023/06/16 05:56:50;;;;;;;5.07;3.55;;;;;;;27.77;39.70;101408.19;5062498;28;20028;-68
2023/06/16 05:59:15;;;;;;;10.63;3.80;;;;;;;28.19;39.01;101407.22;5052400;28;20040;-68
2023/06/16 06:01:41;;;;;;;5.43;3.35;;;;;;;28.62;38.26;101404.25;5053986;28;20139;-67
2023/06/16 06:04:10;;;;;;;10.05;3.92;;;;;;;28.51;38.41;101413.88;5051129;28;20356;-67
2023/06/16 06:06:38;;;;;;;9.02;3.72;;;;;;;28.49;37.64;101416.97;5051786;28;20117;-67
2023/06/16 06:09:04;;;;;;;8.00;3.60;;;;;;;28.46;36.92;101417.56;5040171;28;20029;-68
2023/06/16 06:11:30;;;;;;;6.40;3.53;;;;;;;28.39;37.00;101408.00;5051651;28;20029;-68
2023/06/16 06:13:56;;;;;;;11.07;3.58;;;;;;;28.41;36.79;101412.16;5053500;28;20024;-68
2023/06/16 06:16:22;;;;;;;6.95;3.30;;;;;;;28.61;36.22;101410.94;5055204;28;20454;-67
2023/06/16 06:18:48;;;;;;;5.97;3.33;;;;;;;29.04;36.11;101407.91;5038214;28;20738;-67
2023/06/16 06:21:14;;;;;;;10.43;3.50;;;;;;;29.03;34.60;101411.78;5053315;28;20395;-67
2023/06/16 06:23:40;;;;;;;6.38;3.03;;;;;;;28.82;34.39;101408.59;5056312;28;20087;-68
2023/06/16 06:26:05;;;;;;;11.48;3.40;;;;;;;28.53;33.80;101414.41;5024379;28;20040;-69
2023/06/16 06:28:31;;;;;;;6.68;3.40;;;;;;;28.33;33.70;101423.88;5060026;28;20036;-70
2023/06/16 06:30:56;;;;;;;6.78;3.22;;;;;;;28.77;33.44;101428.06;5058067;28;20391;-69
2023/06/16 06:33:22;;;;;;;6.55;3.50;;;;;;;28.66;33.55;101419.13;5056972;28;20074;-68
2023/06/16 06:35:47;;;;;;;4.90;3.10;;;;;;;28.93;33.63;101423.84;5054255;28;20115;-70
2023/06/16 06:38:13;;;;;;;8.15;3.63;;;;;;;28.86;33.46;101420.69;5053932;28;20432;-68
2023/06/16 06:40:39;;;;;;;9.10;3.28;;;;;;;28.85;33.40;101407.97;5037292;28;20407;-68
2023/06/16 06:43:04;;;;;;;5.47;3.15;;;;;;;29.08;33.24;101410.88;5053934;28;20039;-69
2023/06/16 06:45:30;;;;;;;4.35;3.13;;;;;;;29.24;33.05;101421.31;5054713;28;20049;-69
2023/06/16 06:47:55;;;;;;;4.78;3.15;;;;;;;28.84;33.68;101425.72;5054787;28;20036;-69
2023/06/16 06:50:21;;;;;;;9.40;3.50;;;;;;;28.78;33.34;101418.66;5037394;28;20509;-70
2023/06/16 06:52:46;;;;;;;7.38;3.03;;;;;;;28.50;34.08;101426.09;5039598;28;20039;-69
2023/06/16 06:55:11;;;;;;;3.72;3.08;;;;;;;28.84;34.03;101420.19;5057954;28;20321;-67
2023/06/16 06:57:39;;;;;;;5.88;3.15;;;;;;;28.70;33.56;101424.88;5057417;28;20059;-70
2023/06/16 07:00:07;;;;;;;3.78;3.33;;;;;;;28.66;33.79;101423.84;5057208;28;20029;-69
2023/06/16 07:02:32;;;;;;;9.80;3.10;;;;;;;28.50;33.34;101421.38;5058313;28;20032;-67
2023/06/16 07:04:58;;;;;;;6.88;3.60;;;;;;;28.75;33.72;101424.78;5056152;28;20041;-67
2023/06/16 07:07:23;;;;;;;5.15;3.42;;;;;;;28.72;33.17;101404.06;5057248;28;20480;-69
2023/06/16 07:09:48;;;;;;;5.72;3.13;;;;;;;28.96;32.67;101428.78;5039469;28;20029;-68
2023/06/16 07:12:14;;;;;;;4.60;2.80;;;;;;;29.13;31.56;101416.28;5057432;28;20036;-68
2023/06/16 07:14:40;;;;;;;5.05;3.08;;;;;;;29.28;31.35;101421.50;5039550;28;20025;-69
2023/06/16 07:17:05;;;;;;;7.38;3.28;;;;;;;29.34;31.05;101416.66;5053889;28;20021;-69
2023/06/16 07:19:31;;;;;;;7.50;3.30;;;;;;;29.36;30.67;101431.03;5054672;28;20037;-68
2023/06/16 07:21:57;;;;;;;8.75;3.20;;;;;;;29.41;30.91;101431.75;5038362;28;20123;-68
2023/06/16 07:24:23;;;;;;;4.45;3.08;;;;;;;29.81;30.23;101420.88;5037425;28;20483;-69
2023/06/16 07:26:49;;;;;;;8.35;3.10;;;;;;;29.68;29.44;101421.75;5056492;28;20025;-69
2023/06/16 07:29:14;;;;;;;10.35;3.00;;;;;;;29.94;29.37;101405.31;5055858;28;20534;-68
2023/06/16 07:31:40;;;;;;;8.15;3.10;;;;;;;29.81;28.88;101423.66;5056362;28;20035;-69
2023/06/16 07:34:05;;;;;;;5.60;3.10;;;;;;;29.76;29.32;101426.53;5055573;28;20483;-68
2023/06/16 07:36:32;;;;;;;4.38;3.03;;;;;;;29.47;28.81;101432.44;5053252;28;20028;-69
2023/06/16 07:38:58;;;;;;;3.55;2.72;;;;;;;29.13;28.20;101430.13;5052426;28;20032;-68
2023/06/16 07:41:23;;;;;;;5.72;3.33;;;;;;;29.18;28.72;101430.03;5053085;28;20388;-67
2023/06/16 07:43:49;;;;;;;5.53;3.00;;;;;;;29.42;28.48;101424.25;5054492;28;20086;-67
2023/06/16 07:46:17;;;;;;;9.60;3.22;;;;;;;29.56;28.11;101436.13;5051551;28;20052;-69
2023/06/16 07:48:43;;;;;;;4.45;2.50;;;;;;;29.41;27.57;101420.66;5055611;28;20032;-69
2023/06/16 07:51:08;;;;;;;3.95;2.80;;;;;;;29.49;27.15;101438.50;5055883;28;20033;-68
2023/06/16 07:53:34;;;;;;;4.82;3.05;;;;;;;29.05;27.35;101431.69;5053169;28;20037;-69
2023/06/16 07:55:59;;;;;;;5.95;2.88;;;;;;;29.01;26.87;101441.75;5038296;28;20035;-68
2023/06/16 07:58:25;;;;;;;6.05;2.85;;;;;;;29.30;26.15;101430.31;5038716;28;20041;-70
2023/06/16 08:00:51;;;;;;;3.90;2.88;;;;;;;29.76;26.49;101418.22;5056377;28;20491;-69
2023/06/16 08:03:21;;;;;;;3.42;3.10;;;;;;;29.79;25.82;101428.69;5055866;28;20051;-68
2023/06/16 08:05:46;;;;;;;7.53;3.17;;;;;;;29.79;26.08;101436.19;5055919;28;20025;-69
2023/06/16 08:08:12;;;;;;;6.32;3.25;;;;;;;30.22;25.86;101430.16;5056018;28;20454;-68
2023/06/16 08:10:37;;;;;;;6.13;3.00;;;;;;;30.62;25.86;101431.03;5054545;28;20064;-68
2023/06/16 08:13:03;;;;;;;5.68;3.00;;;;;;;29.60;26.12;101412.19;5054893;28;20051;-68
2023/06/16 08:15:28;;;;;;;6.43;3.30;;;;;;;29.53;27.07;101433.16;5056292;28;20029;-68
2023/06/16 08:17:53;;;;;;;8.90;3.38;;;;;;;29.77;27.21;101428.19;5057997;28;20036;-69
2023/06/16 08:20:20;;;;;;;5.00;3.35;;;;;;;30.26;27.15;101420.06;5034744;28;20028;-68
2023/06/16 08:22:45;;;;;;;4.78;2.92;;;;;;;30.35;27.19;101424.53;5033524;28;20028;-70
2023/06/16 08:25:12;;;;;;;4.68;3.20;;;;;;;30.37;27.08;101422.25;5049738;28;20574;-68
2023/06/16 08:27:39;;;;;;;3.97;3.00;;;;;;;30.01;27.41;101410.41;5050902;28;20061;-71
2023/06/16 08:30:06;;;;;;;6.20;3.10;;;;;;;29.82;27.66;101428.06;5052032;28;20083;-68
2023/06/16 08:32:32;;;;;;;8.55;2.88;;;;;;;30.03;27.53;101427.56;5049422;28;20116;-68
2023/06/16 08:34:57;;;;;;;6.22;2.85;;;;;;;29.86;26.88;101412.41;5049747;28;20033;-68
2023/06/16 08:37:23;;;;;;;3.83;2.90;;;;;;;29.94;26.79;101433.88;5033237;28;20025;-66
2023/06/16 08:39:48;;;;;;;4.75;2.70;;;;;;;29.77;26.38;101430.13;5051267;28;20052;-67
2023/06/16 08:42:15;;;;;;;6.32;2.97;;;;;;;29.68;27.09;101427.28;5034578;28;20472;-67
2023/06/16 08:44:42;;;;;;;5.35;3.13;;;;;;;29.26;27.45;101413.50;5056803;28;20068;-67
2023/06/16 08:47:09;;;;;;;4.45;3.03;;;;;;;29.52;27.10;101426.78;5059645;28;20037;-68
2023/06/16 08:49:35;;;;;;;4.28;2.83;;;;;;;29.83;26.75;101426.09;5057821;28;20465;-68
2023/06/16 08:52:03;;;;;;;6.28;2.55;;;;;;;29.74;26.48;101417.72;5056304;28;20086;-68
2023/06/16 08:54:33;;;;;;;6.35;3.40;;;;;;;29.82;27.06;101432.78;5052812;28;20037;-67
2023/06/16 08:57:03;;;;;;;4.93;3.10;;;;;;;29.21;26.87;101416.38;5055552;28;20025;-68
2023/06/16 08:59:32;;;;;;;5.43;3.00;;;;;;;29.69;27.01;101426.97;5055179;28;20021;-67
2023/06/16 09:02:01;;;;;;;5.50;2.97;;;;;;;29.79;26.09;101428.69;5054405;28;20570;-67
2023/06/16 09:04:28;;;;;;;5.03;2.80;;;;;;;29.49;26.72;101436.53;5054164;28;20036;-68
2023/06/16 09:06:56;;;;;;;5.95;3.10;;;;;;;29.78;26.39;101417.91;5053294;28;20053;-68
2023/06/16 09:09:24;;;;;;;3.63;2.85;;;;;;;29.85;26.26;101432.16;5053665;28;20037;-68
2023/06/16 09:12:07;;;;;;;4.68;2.80;;;;;;;30.02;26.47;101423.97;5054336;28;20178;-68
2023/06/16 09:14:33;;;;;;;3.97;2.80;;;;;;;30.05;26.34;101439.16;5055313;28;20059;-68
2023/06/16 09:17:05;;;;;;;4.97;2.90;;;;;;;29.96;26.02;101439.91;5037466;28;20052;-68
2023/06/16 09:19:34;;;;;;;4.20;2.92;;;;;;;30.05;26.49;101439.16;5055190;28;20028;-68
2023/06/16 09:21:59;;;;;;;5.43;3.05;;;;;;;30.06;26.88;101438.03;5057124;28;20035;-68
2023/06/16 09:24:26;;;;;;;7.65;2.85;;;;;;;30.36;26.01;101437.25;5058972;28;20119;-68
2023/06/16 09:26:57;;;;;;;3.40;2.70;;;;;;;29.93;25.64;101435.03;5041107;28;20029;-67
2023/06/16 09:29:27;;;;;;;4.90;3.13;;;;;;;29.81;25.53;101442.25;5057823;28;20051;-68
2023/06/16 09:32:06;;;;;;;5.43;2.72;;;;;;;30.03;26.75;101441.44;5058454;28;20138;-67
2023/06/16 09:34:32;;;;;;;3.70;2.90;;;;;;;29.60;27.22;101445.47;5058560;28;20116;-67
2023/06/16 09:36:58;;;;;;;11.13;3.03;;;;;;;28.90;28.05;101449.41;5058244;28;20046;-67
2023/06/16 09:39:25;;;;;;;5.03;2.72;;;;;;;28.98;28.70;101445.94;5058513;28;20029;-67
2023/06/16 09:41:52;;;;;;;3.95;2.80;;;;;;;29.19;28.11;101448.31;5055799;28;20124;-67
2023/06/16 09:44:18;;;;;;;7.65;3.17;;;;;;;29.35;27.74;101448.81;5057850;28;20044;-67
2023/06/16 09:46:43;;;;;;;6.10;2.80;;;;;;;29.52;27.72;101442.63;5058350;28;20052;-67
2023/06/16 09:49:24;;;;;;;6.25;2.83;;;;;;;29.66;26.86;101440.66;5059039;28;20486;-68
2023/06/16 09:51:57;;;;;;;6.93;2.78;;;;;;;29.58;26.98;101436.63;5057389;28;20082;-70
2023/06/16 09:54:24;;;;;;;5.28;2.95;;;;;;;29.47;26.64;101433.28;5036203;28;20033;-69
2023/06/16 09:56:50;;;;;;;9.13;4.75;;;;;;;29.43;35.11;101432.25;5055466;28;20025;-69
2023/06/16 09:59:17;;;;;;;7.68;4.55;;;;;;;29.10;37.72;101431.56;5056973;28;20025;-71
2023/06/16 10:01:46;;;;;;;8.38;4.30;;;;;;;28.95;36.62;101420.78;5056113;28;20074;-69
2023/06/16 10:04:15;;;;;;;6.10;4.10;;;;;;;28.66;36.87;101416.38;5054598;28;20083;-69
2023/06/16 10:06:52;;;;;;;8.35;4.00;;;;;;;28.84;34.42;101414.66;5055203;28;20763;-69
2023/06/16 10:09:41;;;;;;;6.28;4.63;;;;;;;28.22;41.90;101414.13;5058164;28;20029;-70
2023/06/16 10:12:11;;;;;;;8.07;5.50;;;;;;;27.45;47.22;101431.88;5059626;28;20097;-69
2023/06/16 10:14:40;;;;;;;9.18;4.93;;;;;;;27.43;45.60;101434.09;5055224;28;20078;-69
2023/06/16 10:17:09;;;;;;;8.25;4.55;;;;;;;27.64;42.70;101438.22;5055331;28;20055;-69
2023/06/16 10:19:37;;;;;;;5.72;4.50;;;;;;;27.64;43.73;101427.16;5057061;28;20036;-69
2023/06/16 10:22:04;;;;;;;7.95;4.53;;;;;;;27.74;43.92;101428.94;5056964;28;20040;-69
2023/06/16 10:24:31;;;;;;;9.07;4.78;;;;;;;27.68;43.35;101426.56;5056437;28;20575;-69
2023/06/16 10:26:57;;;;;;;7.43;4.72;;;;;;;27.64;44.64;101429.91;5057935;28;20029;-69
2023/06/16 10:29:25;;;;;;;6.65;4.55;;;;;;;27.55;44.80;101436.41;5058525;28;20020;-69
2023/06/16 10:32:07;;;;;;;10.25;4.32;;;;;;;27.55;44.89;101437.25;5040668;28;20227;-68
2023/06/16 10:34:46;;;;;;;6.43;4.57;;;;;;;27.74;44.77;101431.72;5059413;28;20090;-69
2023/06/16 10:37:15;;;;;;;6.40;4.70;;;;;;;27.57;45.72;101440.53;5054421;28;20364;-68
2023/06/16 10:39:45;;;;;;;6.20;4.70;;;;;;;27.46;46.27;101419.69;5059498;28;20029;-68
2023/06/16 10:42:12;;;;;;;6.57;4.57;;;;;;;27.68;45.78;101441.19;5053601;28;20025;-68
2023/06/16 10:44:38;;;;;;;7.75;4.40;;;;;;;27.98;43.42;101445.50;5057067;28;20468;-68
2023/06/16 10:47:12;;;;;;;5.00;4.10;;;;;;;28.05;43.14;101443.16;5059030;28;20065;-68
2023/06/16 10:49:57;;;;;;;4.80;4.30;;;;;;;27.43;45.33;101441.59;5058088;28;20051;-68
2023/06/16 10:52:29;;;;;;;7.75;4.60;;;;;;;27.13;47.36;101438.91;5057265;28;20032;-69
2023/06/16 10:54:59;;;;;;;5.72;4.65;;;;;;;27.07;47.44;101434.53;5054288;28;20044;-69
2023/06/16 10:57:25;;;;;;;6.63;4.60;;;;;;;27.06;48.15;101434.84;5052306;28;20024;-68
2023/06/16 11:00:12;;;;;;;6.40;4.88;;;;;;;27.26;47.26;101434.63;5057352;28;20039;-69
2023/06/16 11:02:48;;;;;;;9.82;4.45;;;;;;;27.40;45.53;101427.22;5056791;28;20071;-69
2023/06/16 11:05:14;;;;;;;9.35;4.50;;;;;;;27.63;43.07;101433.81;5057239;28;20091;-69
2023/06/16 11:08:12;;;;;;;9.38;4.55;;;;;;;27.79;42.54;101428.09;5056015;28;20069;-69
2023/06/16 11:10:54;;;;;;;5.78;4.43;;;;;;;28.11;42.18;101427.28;5057052;28;20082;-69
2023/06/16 11:13:33;;;;;;;5.35;3.70;;;;;;;28.46;40.48;101417.56;5056633;28;20028;-68
2023/06/16 11:16:00;;;;;;;7.93;4.13;;;;;;;28.85;39.25;101424.59;5053585;28;20048;-69
2023/06/16 11:18:27;;;;;;;5.15;3.72;;;;;;;29.28;37.48;101415.97;5053574;28;20033;-69
2023/06/16 11:20:56;;;;;;;8.68;4.22;;;;;;;29.33;36.31;101401.16;5054215;28;20103;-69
2023/06/16 11:23:22;;;;;;;6.85;3.78;;;;;;;29.43;37.33;101410.06;5053802;28;20020;-69
2023/06/16 11:25:47;;;;;;;5.45;3.80;;;;;;;29.56;35.59;101399.25;5055659;28;20448;-69